createdAt,value
2023-04-19T00:02:25.700Z,35.38
2023-04-19T00:04:53.835Z,35.62
2023-04-19T00:07:21.388Z,35.48
2023-04-19T00:09:48.841Z,36.31
2023-04-19T00:12:16.501Z,35.87
2023-04-19T00:14:43.869Z,36.09
2023-04-19T00:17:11.857Z,36.53
2023-04-19T00:19:39.583Z,37.17
2023-04-19T00:22:06.953Z,38.76
2023-04-19T00:24:34.398Z,36.90
2023-04-19T00:27:02.510Z,36.80
2023-04-19T00:29:29.987Z,37.22
2023-04-19T00:31:59.363Z,37.28
2023-04-19T00:34:27.102Z,36.61
2023-04-19T00:36:56.823Z,38.49
2023-04-19T00:39:24.314Z,38.17
2023-04-19T00:41:53.086Z,37.97
2023-04-19T00:44:20.777Z,38.04
2023-04-19T00:46:48.492Z,38.02
2023-04-19T00:49:18.391Z,37.28
2023-04-19T00:51:46.786Z,37.33
2023-04-19T00:54:15.260Z,38.17
2023-04-19T00:56:44.656Z,38.63
2023-04-19T00:59:13.180Z,39.03
2023-04-19T01:01:41.703Z,39.95
2023-04-19T01:04:09.743Z,39.71
2023-04-19T01:06:38.557Z,39.57
2023-04-19T01:09:05.940Z,39.61
2023-04-19T01:11:34.138Z,39.85
2023-04-19T01:14:01.486Z,40.22
2023-04-19T01:16:28.987Z,40.62
2023-04-19T01:18:57.062Z,40.43
2023-04-19T01:21:24.690Z,40.44
2023-04-19T01:23:52.416Z,40.15
2023-04-19T01:26:21.065Z,40.15
2023-04-19T01:28:48.493Z,40.82
2023-04-19T01:31:17.101Z,40.08
2023-04-19T01:33:44.821Z,40.36
2023-04-19T01:36:13.093Z,40.49
2023-04-19T01:38:41.633Z,40.41
2023-04-19T01:41:10.582Z,41.65
2023-04-19T01:43:37.998Z,42.22
2023-04-19T01:46:05.529Z,41.47
2023-04-19T01:48:34.072Z,41.26
2023-04-19T01:51:01.542Z,41.72
2023-04-19T01:53:29.035Z,42.04
2023-04-19T01:55:56.856Z,43.03
2023-04-19T01:58:24.260Z,43.02
2023-04-19T02:00:51.798Z,42.52
2023-04-19T02:03:19.745Z,42.88
2023-04-19T02:05:47.496Z,42.89
2023-04-19T02:08:14.889Z,42.90
2023-04-19T02:10:42.559Z,43.59
2023-04-19T02:13:09.961Z,44.07
2023-04-19T02:15:37.602Z,43.85
2023-04-19T02:18:07.012Z,43.92
2023-04-19T02:20:34.676Z,44.24
2023-04-19T02:23:02.108Z,44.58
2023-04-19T02:25:29.847Z,45.09
2023-04-19T02:27:57.715Z,45.13
2023-04-19T02:30:25.332Z,45.65
2023-04-19T02:32:54.927Z,46.48
2023-04-19T02:35:23.071Z,46.94
2023-04-19T02:37:50.544Z,46.29
2023-04-19T02:40:19.012Z,45.98
2023-04-19T02:42:46.634Z,46.04
2023-04-19T02:45:14.098Z,46.63
2023-04-19T02:47:41.712Z,45.74
2023-04-19T02:50:09.725Z,45.93
2023-04-19T02:52:39.696Z,46.09
2023-04-19T02:55:07.660Z,46.01
2023-04-19T02:57:35.703Z,46.14
2023-04-19T03:00:05.871Z,46.42
2023-04-19T03:02:34.016Z,45.54
2023-04-19T03:05:01.789Z,45.30
2023-04-19T03:07:29.368Z,45.37
2023-04-19T03:09:56.786Z,45.41
2023-04-19T03:12:24.409Z,45.55
2023-04-19T03:14:51.824Z,45.35
2023-04-19T03:17:19.297Z,45.70
2023-04-19T03:19:47.861Z,46.16
2023-04-19T03:22:16.075Z,45.60
2023-04-19T03:24:43.647Z,45.22
2023-04-19T03:27:12.252Z,45.40
2023-04-19T03:29:39.815Z,45.85
2023-04-19T03:32:07.974Z,46.06
2023-04-19T03:34:35.653Z,46.09
2023-04-19T03:37:03.050Z,45.85
2023-04-19T03:39:31.011Z,46.06
2023-04-19T03:41:59.256Z,47.20
2023-04-19T03:44:26.842Z,46.89
2023-04-19T03:46:54.279Z,46.91
2023-04-19T03:49:22.408Z,46.43
2023-04-19T03:51:50.576Z,46.50
2023-04-19T03:54:18.145Z,45.63
2023-04-19T03:56:45.852Z,45.30
2023-04-19T03:59:13.926Z,45.10
2023-04-19T04:01:43.072Z,45.56
2023-04-19T04:04:12.062Z,46.31
2023-04-19T04:06:39.760Z,46.28
2023-04-19T04:09:07.748Z,47.18
2023-04-19T04:11:35.540Z,46.12
2023-04-19T04:14:04.110Z,45.52
2023-04-19T04:16:31.844Z,44.94
2023-04-19T04:18:59.699Z,45.91
2023-04-19T04:21:28.246Z,46.31
2023-04-19T04:23:56.383Z,45.76
2023-04-19T04:26:25.450Z,45.55
2023-04-19T04:28:53.795Z,46.27
2023-04-19T04:31:21.226Z,45.69
2023-04-19T04:33:49.120Z,45.19
2023-04-19T04:36:18.348Z,44.70
2023-04-19T04:38:45.884Z,44.55
2023-04-19T04:41:13.573Z,45.05
2023-04-19T04:43:41.412Z,44.51
2023-04-19T04:46:09.111Z,44.89
2023-04-19T04:48:37.457Z,45.14
2023-04-19T04:51:05.285Z,45.18
2023-04-19T04:53:33.074Z,46.44
2023-04-19T04:56:02.461Z,46.72
2023-04-19T04:58:30.491Z,48.39
2023-04-19T05:00:58.260Z,47.07
2023-04-19T05:03:27.350Z,47.23
2023-04-19T05:05:55.041Z,46.91
2023-04-19T05:08:27.142Z,47.51
2023-04-19T05:10:55.783Z,46.57
2023-04-19T05:13:23.726Z,46.05
2023-04-19T05:15:51.317Z,45.98
2023-04-19T05:18:19.666Z,45.89
2023-04-19T05:20:47.096Z,45.51
2023-04-19T05:23:14.604Z,44.93
2023-04-19T05:25:42.931Z,44.68
2023-04-19T05:28:10.781Z,44.96
2023-04-19T05:30:38.571Z,45.47
2023-04-19T05:33:06.653Z,44.36
2023-04-19T05:35:34.065Z,45.30
2023-04-19T05:38:01.758Z,43.48
2023-04-19T05:40:29.725Z,42.22
2023-04-19T05:42:59.164Z,39.00
2023-04-19T05:45:26.810Z,37.33
2023-04-19T05:47:54.572Z,35.35
2023-04-19T05:50:23.898Z,34.85
2023-04-19T05:52:52.344Z,35.90
2023-04-19T05:55:20.181Z,37.49
2023-04-19T05:57:47.672Z,37.57
2023-04-19T06:00:16.284Z,37.81
2023-04-19T06:02:44.905Z,37.28
2023-04-19T06:05:12.997Z,40.03
2023-04-19T06:07:43.815Z,39.16
2023-04-19T06:10:23.424Z,40.53
2023-04-19T06:12:50.995Z,41.75
2023-04-19T06:15:18.441Z,42.20
2023-04-19T06:17:46.728Z,42.48
2023-04-19T06:20:14.230Z,42.75
2023-04-19T06:22:43.585Z,42.51
2023-04-19T06:25:11.299Z,41.47
2023-04-19T06:27:39.085Z,42.11
2023-04-19T06:30:07.241Z,41.05
2023-04-19T06:32:34.930Z,41.75
2023-04-19T06:35:02.511Z,39.56
2023-04-19T06:37:29.925Z,39.27
2023-04-19T06:39:57.540Z,40.70
2023-04-19T06:42:26.034Z,39.67
2023-04-19T06:44:56.970Z,38.67
2023-04-19T06:47:24.681Z,37.89
2023-04-19T06:49:52.188Z,38.21
2023-04-19T06:52:19.760Z,39.87
2023-04-19T06:54:49.169Z,38.74
2023-04-19T06:57:17.262Z,38.73
2023-04-19T06:59:44.744Z,37.89
2023-04-19T07:02:12.536Z,37.19
2023-04-19T07:04:40.198Z,38.33
2023-04-19T07:07:07.722Z,36.79
2023-04-19T07:09:35.427Z,37.29
2023-04-19T07:12:02.924Z,36.67
2023-04-19T07:14:31.378Z,36.94
2023-04-19T07:16:59.062Z,38.23
2023-04-19T07:19:26.461Z,39.27
2023-04-19T07:21:53.888Z,38.46
2023-04-19T07:24:21.753Z,40.27
2023-04-19T07:26:49.184Z,39.98
2023-04-19T07:29:16.656Z,41.18
2023-04-19T07:31:44.634Z,40.75
2023-04-19T07:34:12.206Z,39.94
2023-04-19T07:36:39.622Z,41.00
2023-04-19T07:39:07.312Z,40.62
2023-04-19T07:41:36.084Z,41.16
2023-04-19T07:44:03.935Z,42.04
2023-04-19T07:46:31.723Z,43.14
2023-04-19T07:48:59.142Z,42.61
2023-04-19T07:51:26.547Z,41.98
2023-04-19T07:53:54.338Z,41.22
2023-04-19T07:56:22.512Z,42.28
2023-04-19T07:59:04.237Z,41.41
2023-04-19T08:01:35.746Z,40.68
2023-04-19T08:04:04.049Z,39.36
2023-04-19T08:06:32.646Z,40.39
2023-04-19T08:09:00.174Z,39.05
2023-04-19T08:11:27.859Z,38.93
2023-04-19T08:14:06.813Z,38.34
2023-04-19T08:17:21.411Z,38.08
2023-04-19T08:19:30.395Z,36.26
2023-04-19T08:21:58.111Z,34.96
2023-04-19T08:24:25.716Z,34.79
2023-04-19T08:26:54.303Z,33.88
2023-04-19T08:29:23.119Z,33.75
2023-04-19T08:31:50.600Z,34.04
2023-04-19T08:34:18.053Z,34.92
2023-04-19T08:36:56.019Z,32.60
2023-04-19T08:39:34.748Z,33.28
2023-04-19T08:42:24.832Z,33.67
2023-04-19T08:45:25.961Z,32.60
2023-04-19T08:47:59.779Z,34.44
2023-04-19T08:50:35.347Z,35.27
2023-04-19T08:53:23.090Z,35.77
2023-04-19T08:56:08.709Z,34.94
2023-04-19T08:58:57.843Z,36.13
2023-04-19T09:01:35.411Z,38.10
2023-04-19T09:04:21.552Z,37.53
2023-04-19T09:06:55.066Z,38.69
2023-04-19T09:11:59.545Z,39.23
2023-04-19T09:14:28.779Z,38.99
2023-04-19T09:17:17.463Z,38.17
2023-04-19T09:19:49.384Z,38.56
2023-04-19T09:22:17.050Z,38.36
2023-04-19T09:27:36.430Z,38.29
2023-04-19T09:30:10.850Z,37.58
2023-04-19T09:32:47.569Z,38.04
2023-04-19T09:35:15.556Z,37.32
2023-04-19T09:40:25.862Z,37.85
2023-04-19T09:43:08.677Z,37.86
2023-04-19T09:45:43.482Z,37.86
2023-04-19T09:48:12.455Z,37.92
2023-04-19T09:51:03.205Z,37.03
2023-04-19T09:53:34.273Z,36.86
2023-04-19T09:56:03.359Z,37.60
2023-04-19T10:01:13.404Z,36.98
2023-04-19T10:03:45.811Z,37.20
2023-04-19T10:06:40.088Z,36.48
2023-04-19T10:09:05.079Z,36.41
2023-04-19T10:11:42.899Z,36.25
2023-04-19T10:14:11.812Z,34.92
2023-04-19T10:16:39.530Z,36.65
2023-04-19T10:19:10.292Z,37.23
2023-04-19T10:21:38.935Z,36.59
2023-04-19T10:24:06.720Z,37.45
2023-04-19T10:27:08.834Z,37.11
2023-04-19T10:29:51.882Z,36.79
2023-04-19T10:32:19.525Z,37.51
2023-04-19T10:34:47.453Z,36.29
2023-04-19T10:37:15.116Z,35.36
2023-04-19T10:39:45.797Z,35.66
2023-04-19T10:42:13.625Z,36.23
2023-04-19T10:44:41.037Z,36.25
2023-04-19T10:47:08.496Z,35.40
2023-04-19T10:49:46.486Z,36.06
2023-04-19T10:52:27.437Z,35.69
2023-04-19T10:54:57.982Z,36.71
2023-04-19T10:57:25.438Z,35.21
2023-04-19T11:00:25.760Z,35.22
2023-04-19T11:02:53.748Z,34.98
2023-04-19T11:05:21.482Z,35.57
2023-04-19T11:07:48.895Z,36.25
2023-04-19T11:10:28.331Z,35.02
2023-04-19T11:12:55.824Z,35.90
2023-04-19T11:15:24.311Z,36.78
2023-04-19T11:18:08.835Z,35.74
2023-04-19T11:20:43.305Z,36.29
2023-04-19T11:23:18.023Z,36.21
2023-04-19T11:25:46.588Z,36.07
2023-04-19T11:28:17.438Z,35.48
2023-04-19T11:30:46.303Z,36.20
2023-04-19T11:33:14.028Z,36.88
2023-04-19T11:35:43.681Z,37.10
2023-04-19T11:38:13.185Z,37.69
2023-04-19T11:40:40.904Z,38.65
2023-04-19T11:43:08.316Z,38.97
2023-04-19T11:45:39.774Z,38.04
2023-04-19T11:48:15.069Z,39.98
2023-04-19T11:50:43.654Z,39.86
2023-04-19T11:53:21.670Z,39.63
2023-04-19T11:55:57.557Z,39.58
2023-04-19T11:58:36.186Z,39.27
2023-04-19T12:01:07.868Z,38.94
2023-04-19T12:03:40.238Z,40.01
2023-04-19T12:06:11.932Z,39.82
2023-04-19T12:08:43.901Z,41.33
2023-04-19T12:11:11.304Z,40.99
2023-04-19T12:13:40.694Z,40.24
2023-04-19T12:16:08.875Z,42.05
2023-04-19T12:18:50.300Z,39.95
2023-04-19T12:21:45.482Z,40.45
2023-04-19T12:24:15.891Z,40.92
2023-04-19T12:26:56.190Z,40.20
2023-04-19T12:29:23.985Z,40.16
2023-04-19T12:31:51.823Z,40.30
2023-04-19T12:34:19.312Z,41.66
2023-04-19T12:36:46.691Z,41.51
2023-04-19T12:39:14.562Z,40.73
2023-04-19T12:41:42.265Z,39.89
2023-04-19T12:44:09.716Z,40.06
2023-04-19T12:46:37.504Z,39.52
2023-04-19T12:49:04.965Z,39.07
2023-04-19T12:51:32.838Z,39.45
2023-04-19T12:54:02.373Z,39.42
2023-04-19T12:56:29.792Z,39.70
2023-04-19T12:58:57.249Z,38.54
2023-04-19T13:01:24.950Z,38.59
2023-04-19T13:03:52.673Z,38.74
2023-04-19T13:06:21.169Z,39.31
2023-04-19T13:08:48.857Z,39.12
2023-04-19T13:11:22.794Z,39.04
2023-04-19T13:13:52.005Z,39.87
2023-04-19T13:16:19.953Z,41.13
2023-04-19T13:18:47.429Z,41.47
2023-04-19T13:21:15.370Z,42.87
2023-04-19T13:23:44.383Z,42.15
2023-04-19T13:26:12.473Z,42.19
2023-04-19T13:28:41.672Z,44.24
2023-04-19T13:31:09.387Z,44.25
2023-04-19T13:33:36.935Z,44.06
2023-04-19T13:36:04.954Z,43.92
2023-04-19T13:38:32.364Z,42.88
2023-04-19T13:41:00.331Z,44.02
2023-04-19T13:43:27.979Z,44.32
2023-04-19T13:45:55.480Z,43.61
2023-04-19T13:48:22.967Z,44.84
2023-04-19T13:50:52.453Z,45.65
2023-04-19T13:53:19.844Z,44.29
2023-04-19T13:55:47.284Z,44.97
2023-04-19T13:58:14.976Z,44.17
2023-04-19T14:00:42.414Z,45.66
2023-04-19T14:03:10.504Z,44.50
2023-04-19T14:05:38.042Z,44.17
2023-04-19T14:08:05.597Z,42.50
2023-04-19T14:10:34.462Z,43.47
2023-04-19T14:13:02.017Z,42.45
2023-04-19T14:15:29.577Z,42.66
2023-04-19T14:17:57.351Z,42.26
2023-04-19T14:20:24.796Z,43.20
2023-04-19T14:22:52.390Z,43.39
2023-04-19T14:25:20.334Z,42.71
2023-04-19T14:27:47.967Z,42.54
2023-04-19T14:30:15.640Z,43.42
2023-04-19T14:32:43.424Z,43.05
2023-04-19T14:35:11.362Z,42.85
2023-04-19T14:37:38.845Z,42.48
2023-04-19T14:40:07.260Z,40.72
2023-04-19T14:42:34.822Z,42.87
2023-04-19T14:45:02.278Z,42.37
2023-04-19T14:47:30.428Z,43.17
2023-04-19T14:49:58.290Z,42.85
2023-04-19T14:52:26.192Z,43.35
2023-04-19T14:54:54.229Z,43.24
2023-04-19T14:57:21.650Z,43.08
2023-04-19T14:59:49.125Z,44.75
2023-04-19T15:02:16.957Z,42.31
2023-04-19T15:04:44.643Z,43.38
2023-04-19T15:07:12.218Z,42.89
2023-04-19T15:09:40.867Z,44.17
2023-04-19T15:12:08.485Z,42.94
2023-04-19T15:14:35.947Z,43.21
2023-04-19T15:17:04.063Z,42.78
2023-04-19T15:19:31.611Z,43.83
2023-04-19T15:21:59.080Z,43.56
2023-04-19T15:24:26.861Z,42.98
2023-04-19T15:26:54.466Z,43.53
2023-04-19T15:29:21.894Z,43.42
2023-04-19T15:31:49.705Z,43.62
2023-04-19T15:34:17.292Z,43.57
2023-04-19T15:36:44.948Z,43.30
2023-04-19T15:39:12.708Z,41.96
2023-04-19T15:41:40.165Z,42.08
2023-04-19T15:44:07.621Z,42.52
2023-04-19T15:46:35.760Z,41.22
2023-04-19T15:49:03.937Z,41.42
2023-04-19T15:51:31.661Z,41.09
2023-04-19T15:53:59.363Z,41.18
2023-04-19T15:56:26.803Z,40.74
2023-04-19T15:58:54.224Z,40.44
2023-04-19T16:01:23.296Z,41.25
2023-04-19T16:03:51.199Z,39.50
2023-04-19T16:06:18.687Z,40.05
2023-04-19T16:08:46.228Z,39.66
2023-04-19T16:11:14.055Z,39.69
2023-04-19T16:13:41.435Z,39.90
2023-04-19T16:16:08.949Z,41.01
2023-04-19T16:18:36.772Z,40.10
2023-04-19T16:21:04.316Z,41.17
2023-04-19T16:23:31.738Z,41.52
2023-04-19T16:25:59.413Z,42.06
2023-04-19T16:28:26.904Z,40.22
2023-04-19T16:30:54.291Z,40.85
2023-04-19T16:33:21.959Z,40.50
2023-04-19T16:35:49.597Z,40.75
2023-04-19T16:38:17.015Z,40.38
2023-04-19T16:40:47.755Z,39.77
2023-04-19T16:43:15.438Z,40.45
2023-04-19T16:45:42.995Z,40.19
2023-04-19T16:48:10.972Z,40.44
2023-04-19T16:50:38.567Z,40.82
2023-04-19T16:53:06.023Z,40.34
2023-04-19T16:55:33.677Z,40.98
2023-04-19T16:58:01.159Z,42.62
2023-04-19T17:00:28.646Z,42.43
2023-04-19T17:02:56.584Z,43.42
2023-04-19T17:05:24.175Z,44.18
2023-04-19T17:07:52.312Z,43.15
2023-04-19T17:10:20.747Z,43.30
2023-04-19T17:12:48.733Z,44.56
2023-04-19T17:15:16.443Z,44.19
2023-04-19T17:17:44.200Z,43.26
2023-04-19T17:20:11.885Z,44.30
2023-04-19T17:22:39.519Z,44.33
2023-04-19T17:25:07.542Z,45.43
2023-04-19T17:27:34.982Z,44.78
2023-04-19T17:30:02.520Z,46.06
2023-04-19T17:32:30.428Z,44.61
2023-04-19T17:34:58.051Z,46.02
2023-04-19T17:37:25.970Z,47.20
2023-04-19T17:39:53.754Z,46.55
2023-04-19T17:42:21.229Z,46.64
2023-04-19T17:44:48.805Z,46.89
2023-04-19T17:47:17.043Z,46.21
2023-04-19T17:49:45.706Z,46.92
2023-04-19T17:52:13.634Z,46.16
2023-04-19T17:54:41.430Z,46.66
2023-04-19T17:57:09.113Z,48.70
2023-04-19T17:59:36.921Z,47.78
2023-04-19T18:02:04.765Z,48.23
2023-04-19T18:04:32.870Z,48.31
2023-04-19T18:07:00.425Z,48.52
2023-04-19T18:09:28.007Z,47.34
2023-04-19T18:11:56.200Z,46.81
2023-04-19T18:14:23.806Z,46.82
2023-04-19T18:16:51.483Z,48.05
2023-04-19T18:19:19.588Z,46.93
2023-04-19T18:21:47.199Z,48.23
2023-04-19T18:24:15.444Z,46.90
2023-04-19T18:26:43.227Z,47.79
2023-04-19T18:29:12.223Z,47.02
2023-04-19T18:31:39.917Z,46.86
2023-04-19T18:34:07.645Z,47.15
2023-04-19T18:36:35.262Z,47.95
2023-04-19T18:39:02.891Z,47.13
2023-04-19T18:41:30.907Z,46.83
2023-04-19T18:46:29.496Z,46.36
2023-04-19T18:48:57.499Z,46.99
2023-04-19T18:51:26.773Z,47.34
2023-04-19T18:53:54.401Z,47.97
2023-04-19T18:56:36.257Z,47.36
2023-04-19T18:59:09.495Z,47.83
2023-04-19T19:01:37.394Z,47.81
2023-04-19T19:06:36.851Z,47.67
2023-04-19T19:09:04.591Z,48.01
2023-04-19T19:14:03.046Z,48.01
2023-04-19T19:16:31.300Z,47.75
2023-04-19T19:18:59.108Z,48.68
2023-04-19T19:21:29.341Z,49.93
2023-04-19T19:23:57.907Z,49.88
2023-04-19T19:26:26.283Z,49.34
2023-04-19T19:28:54.380Z,49.90
2023-04-19T19:31:22.064Z,49.94
2023-04-19T19:33:58.071Z,49.84
2023-04-19T19:36:37.802Z,50.40
2023-04-19T19:39:05.674Z,52.23
2023-04-19T19:42:03.164Z,51.31
2023-04-19T19:44:20.944Z,50.81
2023-04-19T19:46:48.677Z,51.18
2023-04-19T19:49:16.486Z,50.00
2023-04-19T19:51:57.633Z,50.47
2023-04-19T19:54:26.785Z,50.02
2023-04-19T19:57:16.947Z,50.00
2023-04-19T19:59:49.612Z,50.21
2023-04-19T20:02:22.654Z,48.85
2023-04-19T20:04:50.795Z,48.47
2023-04-19T20:07:37.344Z,49.09
2023-04-19T20:10:10.669Z,49.10
2023-04-19T20:12:42.933Z,50.18
2023-04-19T20:15:11.810Z,49.28
2023-04-19T20:17:40.522Z,48.72
2023-04-19T20:20:09.034Z,48.65
2023-04-19T20:22:37.281Z,48.95
2023-04-19T20:25:05.753Z,49.13
2023-04-19T20:27:33.512Z,49.13
2023-04-19T20:30:01.412Z,49.79
2023-04-19T20:32:28.818Z,50.19
2023-04-19T20:34:56.384Z,49.62
2023-04-19T20:37:24.154Z,50.16
2023-04-19T20:39:52.149Z,49.54
2023-04-19T20:42:19.633Z,49.07
2023-04-19T20:44:47.484Z,49.86
2023-04-19T20:47:14.995Z,49.13
2023-04-19T20:49:42.462Z,49.72
2023-04-19T20:52:10.364Z,49.79
2023-04-19T20:54:38.891Z,50.99
2023-04-19T20:57:07.601Z,50.21
2023-04-19T20:59:35.998Z,51.27
2023-04-19T21:02:03.772Z,51.50
2023-04-19T21:04:31.396Z,50.95
2023-04-19T21:07:00.909Z,50.34
2023-04-19T21:09:28.592Z,49.49
2023-04-19T21:11:55.999Z,49.76
2023-04-19T21:14:23.697Z,49.17
2023-04-19T21:16:51.192Z,49.62
2023-04-19T21:19:18.801Z,49.11
2023-04-19T21:21:46.713Z,49.18
2023-04-19T21:24:14.110Z,48.86
2023-04-19T21:26:41.678Z,49.24
2023-04-19T21:29:09.488Z,49.13
2023-04-19T21:31:36.965Z,49.50
2023-04-19T21:34:04.373Z,49.25
2023-04-19T21:36:32.660Z,49.44
2023-04-19T21:39:00.093Z,49.28
2023-04-19T21:41:27.454Z,49.68
2023-04-19T21:43:55.281Z,50.04
2023-04-19T21:46:22.670Z,50.75
2023-04-19T21:48:50.038Z,50.19
2023-04-19T21:51:17.701Z,50.83
2023-04-19T21:53:45.124Z,50.39
2023-04-19T21:56:12.514Z,50.99
2023-04-19T21:58:40.639Z,49.95
2023-04-19T22:01:08.170Z,49.90
2023-04-19T22:03:36.144Z,49.92
2023-04-19T22:06:03.780Z,49.69
2023-04-19T22:08:32.965Z,50.48
2023-04-19T22:11:01.604Z,49.98
2023-04-19T22:13:30.125Z,50.09
2023-04-19T22:15:57.528Z,50.18
2023-04-19T22:18:25.336Z,49.71
2023-04-19T22:20:53.941Z,49.78
2023-04-19T22:23:21.361Z,49.67
2023-04-19T22:25:49.090Z,49.71
2023-04-19T22:28:16.979Z,49.65
2023-04-19T22:30:44.768Z,49.78
2023-04-19T22:33:12.635Z,49.37
2023-04-19T22:35:40.034Z,48.88
2023-04-19T22:38:07.726Z,48.92
2023-04-19T22:40:35.425Z,48.74
2023-04-19T22:43:02.926Z,48.87
2023-04-19T22:45:30.448Z,48.99
2023-04-19T22:47:58.187Z,48.83
2023-04-19T22:50:25.633Z,49.04
2023-04-19T22:52:53.024Z,49.22
2023-04-19T22:55:20.834Z,49.13
2023-04-19T22:57:48.227Z,49.69
2023-04-19T23:00:16.906Z,49.20
2023-04-19T23:02:44.706Z,48.83
2023-04-19T23:05:12.347Z,49.91
2023-04-19T23:07:42.039Z,49.91
2023-04-19T23:10:10.409Z,48.93
2023-04-19T23:12:38.954Z,48.85
2023-04-19T23:15:07.280Z,49.23
2023-04-19T23:17:35.007Z,49.34
2023-04-19T23:20:02.499Z,49.38
2023-04-19T23:22:29.902Z,49.50
2023-04-19T23:24:57.628Z,49.50
2023-04-19T23:27:24.993Z,50.64
2023-04-19T23:29:52.426Z,51.00
2023-04-19T23:32:20.121Z,51.04
2023-04-19T23:34:47.542Z,51.18
2023-04-19T23:37:14.939Z,51.21
2023-04-19T23:39:42.962Z,51.86
2023-04-19T23:42:10.386Z,50.74
2023-04-19T23:44:38.601Z,50.70
2023-04-19T23:47:06.265Z,50.64
2023-04-19T23:49:33.792Z,50.51
2023-04-19T23:52:02.963Z,51.00
2023-04-19T23:54:30.643Z,50.47
2023-04-19T23:56:58.786Z,50.80
2023-04-19T23:59:29.137Z,51.44
